sensor_id;sensor_type;location;lat;lon;timestamp;pressure;altitude;pressure_sealevel;temperature;humidity
49529;BME280;35423;37.320;-121.762;2022-08-19T00:01:55;99609.28;;;50.04;5.67
49529;BME280;35423;37.320;-121.762;2022-08-19T00:04:20;99611.48;;;49.99;5.66
49529;BME280;35423;37.320;-121.762;2022-08-19T00:06:47;99616.41;;;49.55;5.83
49529;BME280;35423;37.320;-121.762;2022-08-19T00:09:12;99615.32;;;49.77;5.96
49529;BME280;35423;37.320;-121.762;2022-08-19T00:11:35;99616.78;;;49.20;6.11
49529;BME280;35423;37.320;-121.762;2022-08-19T00:14:00;99616.74;;;48.64;6.13
49529;BME280;35423;37.320;-121.762;2022-08-19T00:16:26;99619.73;;;49.03;6.20
49529;BME280;35423;37.320;-121.762;2022-08-19T00:18:53;99621.20;;;48.26;6.26
49529;BME280;35423;37.320;-121.762;2022-08-19T00:21:20;99621.60;;;48.94;6.27
49529;BME280;35423;37.320;-121.762;2022-08-19T00:23:45;99622.72;;;48.34;6.41
49529;BME280;35423;37.320;-121.762;2022-08-19T00:26:13;99624.33;;;48.27;6.44
49529;BME280;35423;37.320;-121.762;2022-08-19T00:28:41;99622.74;;;47.96;6.55
49529;BME280;35423;37.320;-121.762;2022-08-19T00:31:08;99624.32;;;47.46;6.77
49529;BME280;35423;37.320;-121.762;2022-08-19T00:33:31;99627.05;;;47.48;6.95
49529;BME280;35423;37.320;-121.762;2022-08-19T00:35:59;99622.78;;;46.82;7.00
49529;BME280;35423;37.320;-121.762;2022-08-19T00:38:25;99619.11;;;46.74;7.17
49529;BME280;35423;37.320;-121.762;2022-08-19T00:40:52;99620.06;;;46.41;7.15
49529;BME280;35423;37.320;-121.762;2022-08-19T00:43:21;99621.04;;;46.02;7.25
49529;BME280;35423;37.320;-121.762;2022-08-19T00:45:47;99622.23;;;45.75;7.30
49529;BME280;35423;37.320;-121.762;2022-08-19T00:48:15;99623.94;;;45.44;7.46
49529;BME280;35423;37.320;-121.762;2022-08-19T00:50:43;99625.52;;;45.49;7.58
49529;BME280;35423;37.320;-121.762;2022-08-19T00:53:08;99623.65;;;45.24;7.67
49529;BME280;35423;37.320;-121.762;2022-08-19T00:55:33;99618.47;;;45.22;7.82
49529;BME280;35423;37.320;-121.762;2022-08-19T00:58:00;99618.72;;;44.85;7.94
49529;BME280;35423;37.320;-121.762;2022-08-19T01:00:26;99621.71;;;44.60;7.95
49529;BME280;35423;37.320;-121.762;2022-08-19T01:02:53;99619.62;;;44.33;8.05
49529;BME280;35423;37.320;-121.762;2022-08-19T01:05:22;99619.23;;;44.54;8.18
49529;BME280;35423;37.320;-121.762;2022-08-19T01:07:44;99620.18;;;44.34;8.30
49529;BME280;35423;37.320;-121.762;2022-08-19T01:10:13;99617.95;;;44.04;8.41
49529;BME280;35423;37.320;-121.762;2022-08-19T01:12:37;99618.41;;;43.73;8.58
49529;BME280;35423;37.320;-121.762;2022-08-19T01:15:05;99621.50;;;43.98;8.76
49529;BME280;35423;37.320;-121.762;2022-08-19T01:17:30;99619.85;;;43.44;8.89
49529;BME280;35423;37.320;-121.762;2022-08-19T01:19:55;99619.41;;;42.94;9.09
49529;BME280;35423;37.320;-121.762;2022-08-19T01:22:28;99624.03;;;43.36;9.24
49529;BME280;35423;37.320;-121.762;2022-08-19T01:24:46;99626.63;;;42.43;9.45
49529;BME280;35423;37.320;-121.762;2022-08-19T01:27:12;99627.57;;;42.65;9.68
49529;BME280;35423;37.320;-121.762;2022-08-19T01:29:41;99625.96;;;42.24;9.83
49529;BME280;35423;37.320;-121.762;2022-08-19T01:32:05;99629.65;;;42.10;10.04
49529;BME280;35423;37.320;-121.762;2022-08-19T01:34:29;99629.62;;;42.02;10.22
49529;BME280;35423;37.320;-121.762;2022-08-19T01:36:54;99635.57;;;41.66;10.36
49529;BME280;35423;37.320;-121.762;2022-08-19T01:39:23;99636.02;;;41.69;10.54
49529;BME280;35423;37.320;-121.762;2022-08-19T01:41:47;99637.21;;;41.27;10.69
49529;BME280;35423;37.320;-121.762;2022-08-19T01:44:21;99636.87;;;41.16;10.85
49529;BME280;35423;37.320;-121.762;2022-08-19T01:46:49;99640.92;;;41.39;11.02
49529;BME280;35423;37.320;-121.762;2022-08-19T01:49:20;99637.82;;;41.13;11.21
49529;BME280;35423;37.320;-121.762;2022-08-19T01:51:43;99634.70;;;40.80;11.31
49529;BME280;35423;37.320;-121.762;2022-08-19T01:54:11;99636.51;;;40.62;11.51
49529;BME280;35423;37.320;-121.762;2022-08-19T01:56:35;99633.85;;;40.55;11.62
49529;BME280;35423;37.320;-121.762;2022-08-19T01:59:03;99635.55;;;40.50;11.59
49529;BME280;35423;37.320;-121.762;2022-08-19T02:01:27;99634.22;;;39.89;11.75
49529;BME280;35423;37.320;-121.762;2022-08-19T02:03:55;99631.68;;;39.68;11.86
49529;BME280;35423;37.320;-121.762;2022-08-19T02:06:22;99634.26;;;39.93;12.09
49529;BME280;35423;37.320;-121.762;2022-08-19T02:08:58;99640.01;;;39.03;12.40
49529;BME280;35423;37.320;-121.762;2022-08-19T02:11:29;99639.06;;;38.84;12.77
49529;BME280;35423;37.320;-121.762;2022-08-19T02:13:51;99642.92;;;38.58;13.04
49529;BME280;35423;37.320;-121.762;2022-08-19T02:16:18;99646.47;;;38.51;13.30
49529;BME280;35423;37.320;-121.762;2022-08-19T02:18:43;99646.01;;;38.02;13.60
49529;BME280;35423;37.320;-121.762;2022-08-19T02:21:09;99650.06;;;37.74;13.74
49529;BME280;35423;37.320;-121.762;2022-08-19T02:23:35;99651.59;;;37.78;13.81
49529;BME280;35423;37.320;-121.762;2022-08-19T02:26:00;99651.46;;;37.16;13.92
49529;BME280;35423;37.320;-121.762;2022-08-19T02:28:28;99656.20;;;37.43;14.02
49529;BME280;35423;37.320;-121.762;2022-08-19T02:30:55;99659.61;;;37.70;14.00
49529;BME280;35423;37.320;-121.762;2022-08-19T02:33:21;99662.36;;;36.97;14.18
49529;BME280;35423;37.320;-121.762;2022-08-19T02:35:48;99663.51;;;37.13;14.28
49529;BME280;35423;37.320;-121.762;2022-08-19T02:38:13;99666.37;;;36.91;14.40
49529;BME280;35423;37.320;-121.762;2022-08-19T02:40:46;99673.23;;;36.68;14.73
49529;BME280;35423;37.320;-121.762;2022-08-19T02:43:08;99676.61;;;36.21;15.05
49529;BME280;35423;37.320;-121.762;2022-08-19T02:45:32;99683.47;;;35.92;15.38
49529;BME280;35423;37.320;-121.762;2022-08-19T02:47:59;99685.31;;;35.70;15.59
49529;BME280;35423;37.320;-121.762;2022-08-19T02:50:26;99687.53;;;35.74;15.76
49529;BME280;35423;37.320;-121.762;2022-08-19T02:52:52;99688.78;;;35.19;16.01
49529;BME280;35423;37.320;-121.762;2022-08-19T02:55:17;99685.63;;;35.45;16.18
49529;BME280;35423;37.320;-121.762;2022-08-19T02:57:43;99684.65;;;35.25;16.33
49529;BME280;35423;37.320;-121.762;2022-08-19T03:00:12;99687.09;;;34.82;16.53
49529;BME280;35423;37.320;-121.762;2022-08-19T03:02:37;99692.18;;;34.88;16.74
49529;BME280;35423;37.320;-121.762;2022-08-19T03:05:04;99697.09;;;34.66;16.93
49529;BME280;35423;37.320;-121.762;2022-08-19T03:07:28;99702.33;;;34.40;17.13
49529;BME280;35423;37.320;-121.762;2022-08-19T03:09:55;99704.83;;;34.26;17.30
49529;BME280;35423;37.320;-121.762;2022-08-19T03:12:21;99705.92;;;34.31;17.40
49529;BME280;35423;37.320;-121.762;2022-08-19T03:14:47;99709.96;;;34.14;17.52
49529;BME280;35423;37.320;-121.762;2022-08-19T03:17:14;99715.38;;;34.05;17.56
49529;BME280;35423;37.320;-121.762;2022-08-19T03:19:39;99718.51;;;34.09;17.66
49529;BME280;35423;37.320;-121.762;2022-08-19T03:22:04;99724.06;;;33.67;17.78
49529;BME280;35423;37.320;-121.762;2022-08-19T03:24:33;99725.54;;;33.44;17.93
49529;BME280;35423;37.320;-121.762;2022-08-19T03:26:58;99726.00;;;33.33;17.99
49529;BME280;35423;37.320;-121.762;2022-08-19T03:29:23;99726.84;;;33.52;18.08
49529;BME280;35423;37.320;-121.762;2022-08-19T03:31:49;99728.45;;;33.35;18.24
49529;BME280;35423;37.320;-121.762;2022-08-19T03:34:17;99727.12;;;33.21;18.31
49529;BME280;35423;37.320;-121.762;2022-08-19T03:36:41;99726.35;;;33.27;18.41
49529;BME280;35423;37.320;-121.762;2022-08-19T03:39:07;99728.40;;;33.00;18.54
49529;BME280;35423;37.320;-121.762;2022-08-19T03:41:41;99727.56;;;32.96;18.76
49529;BME280;35423;37.320;-121.762;2022-08-19T03:44:09;99733.06;;;32.62;18.88
49529;BME280;35423;37.320;-121.762;2022-08-19T03:46:48;99732.42;;;32.70;19.15
49529;BME280;35423;37.320;-121.762;2022-08-19T03:49:05;99736.60;;;32.25;19.40
49529;BME280;35423;37.320;-121.762;2022-08-19T03:51:33;99740.21;;;32.24;19.58
49529;BME280;35423;37.320;-121.762;2022-08-19T03:54:00;99740.19;;;32.22;19.67
49529;BME280;35423;37.320;-121.762;2022-08-19T03:56:27;99743.06;;;32.14;19.81
49529;BME280;35423;37.320;-121.762;2022-08-19T03:58:56;99740.50;;;31.94;19.94
49529;BME280;35423;37.320;-121.762;2022-08-19T04:01:23;99736.60;;;31.68;20.06
49529;BME280;35423;37.320;-121.762;2022-08-19T04:03:49;99736.46;;;31.93;20.20
49529;BME280;35423;37.320;-121.762;2022-08-19T04:06:16;99733.74;;;31.59;20.30
49529;BME280;35423;37.320;-121.762;2022-08-19T04:08:39;99738.78;;;31.59;20.33
49529;BME280;35423;37.320;-121.762;2022-08-19T04:11:07;99744.88;;;31.34;20.34
49529;BME280;35423;37.320;-121.762;2022-08-19T04:13:33;99747.10;;;31.75;20.42
49529;BME280;35423;37.320;-121.762;2022-08-19T04:16:01;99752.32;;;31.34;20.62
49529;BME280;35423;37.320;-121.762;2022-08-19T04:18:28;99760.15;;;31.64;20.71
49529;BME280;35423;37.320;-121.762;2022-08-19T04:20:56;99765.12;;;31.01;20.89
49529;BME280;35423;37.320;-121.762;2022-08-19T04:23:21;99766.50;;;31.33;21.06
49529;BME280;35423;37.320;-121.762;2022-08-19T04:25:49;99772.08;;;31.42;21.26
49529;BME280;35423;37.320;-121.762;2022-08-19T04:28:13;99774.51;;;31.01;21.47
49529;BME280;35423;37.320;-121.762;2022-08-19T04:30:43;99773.35;;;31.26;21.63
49529;BME280;35423;37.320;-121.762;2022-08-19T04:33:06;99771.05;;;31.08;21.78
49529;BME280;35423;37.320;-121.762;2022-08-19T04:35:37;99769.69;;;30.87;21.99
49529;BME280;35423;37.320;-121.762;2022-08-19T04:37:59;99772.22;;;30.50;22.18
49529;BME280;35423;37.320;-121.762;2022-08-19T04:40:26;99769.33;;;30.55;22.34
49529;BME280;35423;37.320;-121.762;2022-08-19T04:42:56;99766.11;;;30.19;22.58
49529;BME280;35423;37.320;-121.762;2022-08-19T04:45:22;99765.56;;;30.64;22.78
49529;BME280;35423;37.320;-121.762;2022-08-19T04:47:47;99772.18;;;30.41;22.87
49529;BME280;35423;37.320;-121.762;2022-08-19T04:50:14;99773.22;;;30.29;22.99
49529;BME280;35423;37.320;-121.762;2022-08-19T04:52:40;99774.81;;;30.15;23.24
49529;BME280;35423;37.320;-121.762;2022-08-19T04:55:07;99779.06;;;30.35;23.33
49529;BME280;35423;37.320;-121.762;2022-08-19T04:57:31;99779.75;;;30.07;23.55
49529;BME280;35423;37.320;-121.762;2022-08-19T04:59:57;99781.96;;;29.91;23.71
49529;BME280;35423;37.320;-121.762;2022-08-19T05:02:25;99781.82;;;29.78;23.91
49529;BME280;35423;37.320;-121.762;2022-08-19T05:04:57;99780.45;;;29.80;24.13
49529;BME280;35423;37.320;-121.762;2022-08-19T05:07:20;99781.70;;;29.72;24.25
49529;BME280;35423;37.320;-121.762;2022-08-19T05:09:46;99778.31;;;29.93;24.34
49529;BME280;35423;37.320;-121.762;2022-08-19T05:12:12;99777.68;;;29.76;24.43
49529;BME280;35423;37.320;-121.762;2022-08-19T05:14:39;99778.11;;;29.27;24.56
49529;BME280;35423;37.320;-121.762;2022-08-19T05:17:07;99779.02;;;29.47;24.55
49529;BME280;35423;37.320;-121.762;2022-08-19T05:19:34;99774.73;;;29.34;24.61
49529;BME280;35423;37.320;-121.762;2022-08-19T05:22:00;99770.49;;;29.19;24.75
49529;BME280;35423;37.320;-121.762;2022-08-19T05:24:28;99770.73;;;29.28;24.84
49529;BME280;35423;37.320;-121.762;2022-08-19T05:26:54;99769.11;;;29.18;24.90
49529;BME280;35423;37.320;-121.762;2022-08-19T05:29:22;99769.78;;;28.78;25.03
49529;BME280;35423;37.320;-121.762;2022-08-19T05:31:49;99766.58;;;28.98;24.99
49529;BME280;35423;37.320;-121.762;2022-08-19T05:34:13;99760.35;;;28.81;25.02
49529;BME280;35423;37.320;-121.762;2022-08-19T05:36:42;99758.76;;;28.72;25.00
49529;BME280;35423;37.320;-121.762;2022-08-19T05:39:05;99756.61;;;28.77;25.13
49529;BME280;35423;37.320;-121.762;2022-08-19T05:41:30;99752.81;;;28.43;25.22
49529;BME280;35423;37.320;-121.762;2022-08-19T05:44:04;99749.27;;;28.01;25.41
49529;BME280;35423;37.320;-121.762;2022-08-19T05:46:26;99745.52;;;28.17;25.53
49529;BME280;35423;37.320;-121.762;2022-08-19T05:48:53;99745.55;;;27.83;25.60
49529;BME280;35423;37.320;-121.762;2022-08-19T05:51:19;99744.57;;;28.07;25.63
49529;BME280;35423;37.320;-121.762;2022-08-19T05:53:44;99744.68;;;28.26;25.66
49529;BME280;35423;37.320;-121.762;2022-08-19T05:56:12;99739.78;;;28.12;25.88
49529;BME280;35423;37.320;-121.762;2022-08-19T05:58:38;99742.91;;;28.21;26.03
49529;BME280;35423;37.320;-121.762;2022-08-19T06:01:08;99741.86;;;27.95;26.13
49529;BME280;35423;37.320;-121.762;2022-08-19T06:03:32;99741.40;;;28.08;26.22
49529;BME280;35423;37.320;-121.762;2022-08-19T06:05:57;99738.80;;;27.80;26.31
49529;BME280;35423;37.320;-121.762;2022-08-19T06:08:25;99735.42;;;27.60;26.55
49529;BME280;35423;37.320;-121.762;2022-08-19T06:10:56;99733.77;;;27.52;26.71
49529;BME280;35423;37.320;-121.762;2022-08-19T06:13:22;99731.44;;;27.73;26.86
49529;BME280;35423;37.320;-121.762;2022-08-19T06:15:48;99727.32;;;27.64;26.91
49529;BME280;35423;37.320;-121.762;2022-08-19T06:18:15;99723.53;;;27.62;26.97
49529;BME280;35423;37.320;-121.762;2022-08-19T06:20:43;99720.75;;;27.92;27.05
49529;BME280;35423;37.320;-121.762;2022-08-19T06:23:10;99720.29;;;27.82;27.18
49529;BME280;35423;37.320;-121.762;2022-08-19T06:25:36;99718.40;;;27.86;27.33
49529;BME280;35423;37.320;-121.762;2022-08-19T06:28:02;99717.90;;;27.31;27.46
49529;BME280;35423;37.320;-121.762;2022-08-19T06:30:29;99717.85;;;27.25;27.40
49529;BME280;35423;37.320;-121.762;2022-08-19T06:32:57;99717.67;;;26.35;27.30
49529;BME280;35423;37.320;-121.762;2022-08-19T06:35:26;99712.36;;;27.85;26.87
49529;BME280;35423;37.320;-121.762;2022-08-19T06:37:52;99713.44;;;27.15;26.96
49529;BME280;35423;37.320;-121.762;2022-08-19T06:40:19;99716.22;;;27.48;27.13
49529;BME280;35423;37.320;-121.762;2022-08-19T06:42:45;99719.28;;;27.12;27.14
49529;BME280;35423;37.320;-121.762;2022-08-19T06:45:13;99720.87;;;27.32;27.18
49529;BME280;35423;37.320;-121.762;2022-08-19T06:47:50;99722.64;;;27.34;27.32
49529;BME280;35423;37.320;-121.762;2022-08-19T06:50:15;99719.94;;;27.02;27.46
49529;BME280;35423;37.320;-121.762;2022-08-19T06:52:42;99713.31;;;27.23;27.45
49529;BME280;35423;37.320;-121.762;2022-08-19T06:55:10;99712.55;;;27.19;27.47
49529;BME280;35423;37.320;-121.762;2022-08-19T06:57:35;99710.50;;;27.04;27.59
49529;BME280;35423;37.320;-121.762;2022-08-19T07:00:09;99710.69;;;26.98;27.66
49529;BME280;35423;37.320;-121.762;2022-08-19T07:02:33;99712.07;;;27.05;27.68
49529;BME280;35423;37.320;-121.762;2022-08-19T07:05:01;99707.55;;;26.67;27.76
49529;BME280;35423;37.320;-121.762;2022-08-19T07:07:27;99707.79;;;26.75;27.94
49529;BME280;35423;37.320;-121.762;2022-08-19T07:09:57;99707.04;;;26.62;28.06
49529;BME280;35423;37.320;-121.762;2022-08-19T07:12:24;99702.80;;;26.59;27.89
49529;BME280;35423;37.320;-121.762;2022-08-19T07:14:50;99699.04;;;26.62;28.01
49529;BME280;35423;37.320;-121.762;2022-08-19T07:17:15;99701.45;;;26.47;28.21
49529;BME280;35423;37.320;-121.762;2022-08-19T07:19:44;99698.61;;;26.37;28.26
49529;BME280;35423;37.320;-121.762;2022-08-19T07:22:12;99696.51;;;26.71;28.41
49529;BME280;35423;37.320;-121.762;2022-08-19T07:24:38;99694.09;;;26.53;28.58
49529;BME280;35423;37.320;-121.762;2022-08-19T07:27:05;99694.93;;;26.01;28.68
49529;BME280;35423;37.320;-121.762;2022-08-19T07:29:33;99697.28;;;25.99;28.72
49529;BME280;35423;37.320;-121.762;2022-08-19T07:31:56;99697.84;;;26.08;28.65
49529;BME280;35423;37.320;-121.762;2022-08-19T07:34:21;99693.98;;;25.96;28.66
49529;BME280;35423;37.320;-121.762;2022-08-19T07:36:52;99693.18;;;26.10;28.71
49529;BME280;35423;37.320;-121.762;2022-08-19T07:39:20;99693.62;;;25.82;28.78
49529;BME280;35423;37.320;-121.762;2022-08-19T07:41:44;99690.71;;;26.33;28.68
49529;BME280;35423;37.320;-121.762;2022-08-19T07:44:15;99689.98;;;26.23;28.65
49529;BME280;35423;37.320;-121.762;2022-08-19T07:46:42;99693.12;;;26.05;28.82
49529;BME280;35423;37.320;-121.762;2022-08-19T07:49:07;99687.46;;;25.87;29.05
49529;BME280;35423;37.320;-121.762;2022-08-19T07:51:32;99687.49;;;25.39;29.26
49529;BME280;35423;37.320;-121.762;2022-08-19T07:53:58;99682.30;;;25.55;29.37
49529;BME280;35423;37.320;-121.762;2022-08-19T07:56:26;99679.51;;;25.57;29.36
49529;BME280;35423;37.320;-121.762;2022-08-19T07:58:52;99678.20;;;25.15;29.55
49529;BME280;35423;37.320;-121.762;2022-08-19T08:01:22;99675.83;;;25.38;29.63
49529;BME280;35423;37.320;-121.762;2022-08-19T08:03:46;99674.92;;;25.53;29.63
49529;BME280;35423;37.320;-121.762;2022-08-19T08:06:11;99671.13;;;25.24;29.70
49529;BME280;35423;37.320;-121.762;2022-08-19T08:08:37;99670.71;;;25.60;29.83
49529;BME280;35423;37.320;-121.762;2022-08-19T08:11:05;99675.20;;;25.23;29.82
49529;BME280;35423;37.320;-121.762;2022-08-19T08:13:30;99675.70;;;25.10;30.01
49529;BME280;35423;37.320;-121.762;2022-08-19T08:15:56;99674.62;;;24.86;30.04
49529;BME280;35423;37.320;-121.762;2022-08-19T08:18:20;99676.08;;;25.06;30.09
49529;BME280;35423;37.320;-121.762;2022-08-19T08:20:46;99676.54;;;25.32;30.16
49529;BME280;35423;37.320;-121.762;2022-08-19T08:23:12;99675.84;;;24.81;30.24
49529;BME280;35423;37.320;-121.762;2022-08-19T08:25:38;99676.03;;;25.19;30.37
49529;BME280;35423;37.320;-121.762;2022-08-19T08:28:06;99673.37;;;24.91;30.42
49529;BME280;35423;37.320;-121.762;2022-08-19T08:30:33;99676.75;;;25.07;30.52
49529;BME280;35423;37.320;-121.762;2022-08-19T08:32:59;99676.93;;;24.56;30.52
49529;BME280;35423;37.320;-121.762;2022-08-19T08:35:24;99675.64;;;24.94;30.58
49529;BME280;35423;37.320;-121.762;2022-08-19T08:37:54;99674.39;;;24.87;30.65
49529;BME280;35423;37.320;-121.762;2022-08-19T08:40:21;99673.72;;;24.80;30.79
49529;BME280;35423;37.320;-121.762;2022-08-19T08:42:49;99673.01;;;24.82;30.86
49529;BME280;35423;37.320;-121.762;2022-08-19T08:45:13;99672.42;;;24.20;31.09
49529;BME280;35423;37.320;-121.762;2022-08-19T08:47:37;99673.13;;;24.68;31.06
49529;BME280;35423;37.320;-121.762;2022-08-19T08:50:04;99670.32;;;24.33;31.17
49529;BME280;35423;37.320;-121.762;2022-08-19T08:52:28;99665.81;;;24.23;31.23
49529;BME280;35423;37.320;-121.762;2022-08-19T08:54:55;99662.73;;;24.26;31.21
49529;BME280;35423;37.320;-121.762;2022-08-19T08:57:23;99660.05;;;24.40;31.35
49529;BME280;35423;37.320;-121.762;2022-08-19T08:59:44;99658.75;;;24.49;31.47
49529;BME280;35423;37.320;-121.762;2022-08-19T09:02:09;99658.57;;;24.28;31.54
49529;BME280;35423;37.320;-121.762;2022-08-19T09:04:35;99655.44;;;24.21;31.56
49529;BME280;35423;37.320;-121.762;2022-08-19T09:07:12;99654.29;;;24.18;31.68
49529;BME280;35423;37.320;-121.762;2022-08-19T09:09:30;99651.38;;;24.58;31.65
49529;BME280;35423;37.320;-121.762;2022-08-19T09:11:59;99652.00;;;23.99;31.76
49529;BME280;35423;37.320;-121.762;2022-08-19T09:16:44;99654.80;;;23.90;31.89
49529;BME280;35423;37.320;-121.762;2022-08-19T09:19:11;99654.20;;;24.19;31.84
49529;BME280;35423;37.320;-121.762;2022-08-19T09:21:38;99654.88;;;24.04;31.68
49529;BME280;35423;37.320;-121.762;2022-08-19T09:24:06;99652.37;;;23.90;31.78
49529;BME280;35423;37.320;-121.762;2022-08-19T09:26:33;99652.08;;;24.00;31.95
49529;BME280;35423;37.320;-121.762;2022-08-19T09:28:59;99651.01;;;23.85;31.98
49529;BME280;35423;37.320;-121.762;2022-08-19T09:31:26;99646.01;;;23.73;32.20
49529;BME280;35423;37.320;-121.762;2022-08-19T09:33:54;99646.53;;;23.67;32.29
49529;BME280;35423;37.320;-121.762;2022-08-19T09:36:23;99646.47;;;23.82;32.37
49529;BME280;35423;37.320;-121.762;2022-08-19T09:38:47;99644.21;;;23.76;32.47
49529;BME280;35423;37.320;-121.762;2022-08-19T09:41:15;99643.68;;;23.54;32.55
49529;BME280;35423;37.320;-121.762;2022-08-19T09:43:41;99641.12;;;23.70;32.58
49529;BME280;35423;37.320;-121.762;2022-08-19T09:46:08;99638.91;;;23.58;32.68
49529;BME280;35423;37.320;-121.762;2022-08-19T09:48:33;99636.46;;;23.44;32.82
49529;BME280;35423;37.320;-121.762;2022-08-19T09:51:04;99635.58;;;23.44;32.82
49529;BME280;35423;37.320;-121.762;2022-08-19T09:53:27;99635.44;;;23.40;32.85
49529;BME280;35423;37.320;-121.762;2022-08-19T09:55:56;99637.68;;;23.32;32.87
49529;BME280;35423;37.320;-121.762;2022-08-19T09:58:21;99636.55;;;23.60;32.93
49529;BME280;35423;37.320;-121.762;2022-08-19T10:00:49;99633.84;;;23.54;33.01
49529;BME280;35423;37.320;-121.762;2022-08-19T10:03:15;99634.25;;;23.48;33.08
49529;BME280;35423;37.320;-121.762;2022-08-19T10:05:41;99631.79;;;23.45;33.08
49529;BME280;35423;37.320;-121.762;2022-08-19T10:08:06;99631.21;;;23.18;33.05
49529;BME280;35423;37.320;-121.762;2022-08-19T10:10:36;99632.92;;;23.32;33.11
49529;BME280;35423;37.320;-121.762;2022-08-19T10:12:58;99631.56;;;23.02;33.27
49529;BME280;35423;37.320;-121.762;2022-08-19T10:15:26;99630.92;;;23.17;33.23
49529;BME280;35423;37.320;-121.762;2022-08-19T10:17:53;99631.55;;;23.11;33.39
49529;BME280;35423;37.320;-121.762;2022-08-19T10:20:18;99632.71;;;22.87;33.66
49529;BME280;35423;37.320;-121.762;2022-08-19T10:22:44;99633.29;;;23.04;33.75
49529;BME280;35423;37.320;-121.762;2022-08-19T10:25:10;99632.45;;;23.07;33.71
49529;BME280;35423;37.320;-121.762;2022-08-19T10:27:36;99630.95;;;23.05;33.73
49529;BME280;35423;37.320;-121.762;2022-08-19T10:30:05;99629.65;;;22.50;33.77
49529;BME280;35423;37.320;-121.762;2022-08-19T10:32:29;99628.35;;;22.77;33.66
49529;BME280;35423;37.320;-121.762;2022-08-19T10:34:55;99627.49;;;22.20;33.62
49529;BME280;35423;37.320;-121.762;2022-08-19T10:37:20;99626.10;;;22.55;33.67
49529;BME280;35423;37.320;-121.762;2022-08-19T10:39:46;99622.49;;;22.74;33.61
49529;BME280;35423;37.320;-121.762;2022-08-19T10:42:11;99616.45;;;22.43;33.71
49529;BME280;35423;37.320;-121.762;2022-08-19T10:44:36;99614.53;;;22.61;33.89
49529;BME280;35423;37.320;-121.762;2022-08-19T10:47:05;99612.45;;;22.33;34.04
49529;BME280;35423;37.320;-121.762;2022-08-19T10:49:31;99607.93;;;22.50;34.03
49529;BME280;35423;37.320;-121.762;2022-08-19T10:51:58;99604.66;;;22.45;34.05
49529;BME280;35423;37.320;-121.762;2022-08-19T10:54:26;99606.55;;;22.39;34.12
49529;BME280;35423;37.320;-121.762;2022-08-19T10:56:52;99605.71;;;22.36;34.14
49529;BME280;35423;37.320;-121.762;2022-08-19T10:59:20;99605.26;;;22.36;34.10
49529;BME280;35423;37.320;-121.762;2022-08-19T11:01:52;99605.66;;;22.31;34.25
49529;BME280;35423;37.320;-121.762;2022-08-19T11:04:18;99605.59;;;22.23;34.43
49529;BME280;35423;37.320;-121.762;2022-08-19T11:06:43;99609.24;;;22.19;34.59
49529;BME280;35423;37.320;-121.762;2022-08-19T11:09:08;99611.31;;;22.13;34.73
49529;BME280;35423;37.320;-121.762;2022-08-19T11:11:36;99611.46;;;22.36;34.86
49529;BME280;35423;37.320;-121.762;2022-08-19T11:14:01;99609.31;;;22.12;34.95
49529;BME280;35423;37.320;-121.762;2022-08-19T11:16:27;99610.55;;;22.08;35.04
49529;BME280;35423;37.320;-121.762;2022-08-19T11:18:58;99609.62;;;22.02;35.04
49529;BME280;35423;37.320;-121.762;2022-08-19T11:21:25;99612.95;;;21.94;35.18
49529;BME280;35423;37.320;-121.762;2022-08-19T11:23:52;99609.93;;;21.95;35.33
49529;BME280;35423;37.320;-121.762;2022-08-19T11:26:15;99610.19;;;22.14;35.42
49529;BME280;35423;37.320;-121.762;2022-08-19T11:28:40;99608.35;;;22.05;35.56
49529;BME280;35423;37.320;-121.762;2022-08-19T11:31:10;99604.00;;;21.76;35.61
49529;BME280;35423;37.320;-121.762;2022-08-19T11:33:31;99602.18;;;21.73;35.68
49529;BME280;35423;37.320;-121.762;2022-08-19T11:35:58;99600.13;;;21.73;35.67
49529;BME280;35423;37.320;-121.762;2022-08-19T11:38:24;99602.05;;;21.68;35.69
49529;BME280;35423;37.320;-121.762;2022-08-19T11:40:55;99605.30;;;22.10;35.76
49529;BME280;35423;37.320;-121.762;2022-08-19T11:43:14;99606.48;;;21.81;35.85
49529;BME280;35423;37.320;-121.762;2022-08-19T11:45:40;99604.25;;;22.07;35.96
49529;BME280;35423;37.320;-121.762;2022-08-19T11:48:07;99601.77;;;21.80;36.02
49529;BME280;35423;37.320;-121.762;2022-08-19T11:50:32;99603.67;;;21.95;36.07
49529;BME280;35423;37.320;-121.762;2022-08-19T11:53:00;99603.10;;;21.69;36.08
49529;BME280;35423;37.320;-121.762;2022-08-19T11:55:27;99604.33;;;21.89;36.20
49529;BME280;35423;37.320;-121.762;2022-08-19T11:57:57;99605.93;;;21.41;36.17
49529;BME280;35423;37.320;-121.762;2022-08-19T12:00:24;99605.47;;;21.59;36.26
49529;BME280;35423;37.320;-121.762;2022-08-19T12:02:57;99603.91;;;21.04;36.38
49529;BME280;35423;37.320;-121.762;2022-08-19T12:05:23;99604.96;;;21.72;36.45
49529;BME280;35423;37.320;-121.762;2022-08-19T12:07:48;99606.70;;;21.19;36.60
49529;BME280;35423;37.320;-121.762;2022-08-19T12:10:14;99601.86;;;21.71;36.58
49529;BME280;35423;37.320;-121.762;2022-08-19T12:12:41;99598.37;;;21.40;36.61
49529;BME280;35423;37.320;-121.762;2022-08-19T12:15:09;99595.35;;;21.29;36.66
49529;BME280;35423;37.320;-121.762;2022-08-19T12:17:38;99591.74;;;21.20;36.71
49529;BME280;35423;37.320;-121.762;2022-08-19T12:20:09;99589.29;;;21.30;36.82
49529;BME280;35423;37.320;-121.762;2022-08-19T12:22:33;99586.83;;;21.19;36.84
49529;BME280;35423;37.320;-121.762;2022-08-19T12:24:58;99587.54;;;21.05;36.97
49529;BME280;35423;37.320;-121.762;2022-08-19T12:27:24;99591.83;;;20.99;37.00
49529;BME280;35423;37.320;-121.762;2022-08-19T12:29:50;99594.40;;;21.17;37.05